sensor_id;sensor_type;location;lat;lon;timestamp;temperature;humidity
12446;DHT22;6287;50.984;7.022;2023-02-23T00:02:04;10.20;99.90
12446;DHT22;6287;50.984;7.022;2023-02-23T00:04:30;10.30;99.90
12446;DHT22;6287;50.984;7.022;2023-02-23T00:06:58;10.20;99.90
12446;DHT22;6287;50.984;7.022;2023-02-23T00:09:28;10.20;99.90
12446;DHT22;6287;50.984;7.022;2023-02-23T00:12:03;10.20;99.90
12446;DHT22;6287;50.984;7.022;2023-02-23T00:14:33;10.20;99.90
12446;DHT22;6287;50.984;7.022;2023-02-23T00:16:59;10.20;99.90
12446;DHT22;6287;50.984;7.022;2023-02-23T00:19:27;10.20;99.90
12446;DHT22;6287;50.984;7.022;2023-02-23T00:21:57;10.20;99.90
12446;DHT22;6287;50.984;7.022;2023-02-23T00:24:28;10.20;99.90
12446;DHT22;6287;50.984;7.022;2023-02-23T00:26:56;10.20;99.90
12446;DHT22;6287;50.984;7.022;2023-02-23T00:29:24;10.20;99.90
12446;DHT22;6287;50.984;7.022;2023-02-23T00:31:52;10.30;99.90
12446;DHT22;6287;50.984;7.022;2023-02-23T00:34:20;10.20;99.90
12446;DHT22;6287;50.984;7.022;2023-02-23T00:36:52;10.30;99.90
12446;DHT22;6287;50.984;7.022;2023-02-23T00:39:23;10.20;99.90
12446;DHT22;6287;50.984;7.022;2023-02-23T00:41:55;10.20;99.90
12446;DHT22;6287;50.984;7.022;2023-02-23T00:44:22;10.10;99.90
12446;DHT22;6287;50.984;7.022;2023-02-23T00:46:50;10.20;99.90
12446;DHT22;6287;50.984;7.022;2023-02-23T00:49:17;10.30;99.90
12446;DHT22;6287;50.984;7.022;2023-02-23T00:51:44;10.10;99.90
12446;DHT22;6287;50.984;7.022;2023-02-23T00:54:12;10.20;99.90
12446;DHT22;6287;50.984;7.022;2023-02-23T00:56:38;10.20;99.90
12446;DHT22;6287;50.984;7.022;2023-02-23T00:59:07;10.20;99.90
12446;DHT22;6287;50.984;7.022;2023-02-23T01:01:36;10.10;99.90
12446;DHT22;6287;50.984;7.022;2023-02-23T01:04:03;10.20;99.90
12446;DHT22;6287;50.984;7.022;2023-02-23T01:06:31;10.20;99.90
12446;DHT22;6287;50.984;7.022;2023-02-23T01:08:57;10.20;99.90
12446;DHT22;6287;50.984;7.022;2023-02-23T01:11:26;10.10;99.90
12446;DHT22;6287;50.984;7.022;2023-02-23T01:13:56;10.10;99.90
12446;DHT22;6287;50.984;7.022;2023-02-23T01:16:25;10.10;99.90
12446;DHT22;6287;50.984;7.022;2023-02-23T01:18:56;10.10;99.90
12446;DHT22;6287;50.984;7.022;2023-02-23T01:21:37;10.10;99.90
12446;DHT22;6287;50.984;7.022;2023-02-23T01:24:06;10.10;99.90
12446;DHT22;6287;50.984;7.022;2023-02-23T01:26:35;10.10;99.90
12446;DHT22;6287;50.984;7.022;2023-02-23T01:29:12;10.00;99.90
12446;DHT22;6287;50.984;7.022;2023-02-23T01:31:45;10.10;99.90
12446;DHT22;6287;50.984;7.022;2023-02-23T01:34:14;10.10;99.90
12446;DHT22;6287;50.984;7.022;2023-02-23T01:36:41;10.10;99.90
12446;DHT22;6287;50.984;7.022;2023-02-23T01:39:11;10.10;99.90
12446;DHT22;6287;50.984;7.022;2023-02-23T01:41:40;10.10;99.90
12446;DHT22;6287;50.984;7.022;2023-02-23T01:46:44;10.10;99.90
12446;DHT22;6287;50.984;7.022;2023-02-23T01:49:23;10.00;99.90
12446;DHT22;6287;50.984;7.022;2023-02-23T01:54:31;10.10;99.90
12446;DHT22;6287;50.984;7.022;2023-02-23T01:57:00;10.10;99.90
12446;DHT22;6287;50.984;7.022;2023-02-23T02:01:58;10.00;99.90
12446;DHT22;6287;50.984;7.022;2023-02-23T02:04:24;10.10;99.90
12446;DHT22;6287;50.984;7.022;2023-02-23T02:06:53;10.10;99.90
12446;DHT22;6287;50.984;7.022;2023-02-23T02:09:21;10.00;99.90
12446;DHT22;6287;50.984;7.022;2023-02-23T02:11:50;10.00;99.90
12446;DHT22;6287;50.984;7.022;2023-02-23T02:14:28;10.10;99.90
12446;DHT22;6287;50.984;7.022;2023-02-23T02:25:14;10.00;99.90
12446;DHT22;6287;50.984;7.022;2023-02-23T02:41:18;9.90;99.90
12446;DHT22;6287;50.984;7.022;2023-02-23T02:46:40;10.00;99.90
12446;DHT22;6287;50.984;7.022;2023-02-23T02:54:36;10.00;99.90
12446;DHT22;6287;50.984;7.022;2023-02-23T02:57:03;10.00;99.90
12446;DHT22;6287;50.984;7.022;2023-02-23T02:59:30;10.00;99.90
12446;DHT22;6287;50.984;7.022;2023-02-23T03:02:20;9.90;99.90
12446;DHT22;6287;50.984;7.022;2023-02-23T03:05:17;9.90;99.90
12446;DHT22;6287;50.984;7.022;2023-02-23T03:20:09;9.80;99.90
12446;DHT22;6287;50.984;7.022;2023-02-23T03:26:13;9.90;99.90
12446;DHT22;6287;50.984;7.022;2023-02-23T03:29:19;9.90;99.90
12446;DHT22;6287;50.984;7.022;2023-02-23T03:38:15;9.90;99.90
12446;DHT22;6287;50.984;7.022;2023-02-23T03:41:01;9.90;99.90
12446;DHT22;6287;50.984;7.022;2023-02-23T03:43:57;9.90;99.90
12446;DHT22;6287;50.984;7.022;2023-02-23T03:46:42;9.90;99.90
12446;DHT22;6287;50.984;7.022;2023-02-23T03:49:35;9.90;99.90
12446;DHT22;6287;50.984;7.022;2023-02-23T03:52:26;9.80;99.90
12446;DHT22;6287;50.984;7.022;2023-02-23T03:55:22;9.90;99.90
12446;DHT22;6287;50.984;7.022;2023-02-23T03:58:14;9.80;99.90
12446;DHT22;6287;50.984;7.022;2023-02-23T04:01:03;9.80;99.90
12446;DHT22;6287;50.984;7.022;2023-02-23T04:03:52;9.80;99.90
12446;DHT22;6287;50.984;7.022;2023-02-23T04:06:41;9.70;99.90
12446;DHT22;6287;50.984;7.022;2023-02-23T04:09:26;9.70;99.90
12446;DHT22;6287;50.984;7.022;2023-02-23T04:12:45;9.70;99.90
12446;DHT22;6287;50.984;7.022;2023-02-23T04:15:35;9.70;99.90
12446;DHT22;6287;50.984;7.022;2023-02-23T04:18:05;9.80;99.90
12446;DHT22;6287;50.984;7.022;2023-02-23T04:20:32;9.80;99.90
12446;DHT22;6287;50.984;7.022;2023-02-23T04:23:02;9.70;99.90
12446;DHT22;6287;50.984;7.022;2023-02-23T04:25:32;9.80;99.90
12446;DHT22;6287;50.984;7.022;2023-02-23T04:28:02;9.70;99.90
12446;DHT22;6287;50.984;7.022;2023-02-23T04:30:30;9.70;99.90
12446;DHT22;6287;50.984;7.022;2023-02-23T04:32:56;9.80;99.90
12446;DHT22;6287;50.984;7.022;2023-02-23T04:35:23;9.80;99.90
12446;DHT22;6287;50.984;7.022;2023-02-23T04:37:54;9.70;99.90
12446;DHT22;6287;50.984;7.022;2023-02-23T04:40:25;9.70;99.90
12446;DHT22;6287;50.984;7.022;2023-02-23T04:42:51;9.70;99.90
12446;DHT22;6287;50.984;7.022;2023-02-23T04:45:20;9.70;99.90
12446;DHT22;6287;50.984;7.022;2023-02-23T04:47:46;9.80;99.90
12446;DHT22;6287;50.984;7.022;2023-02-23T04:50:15;9.70;99.90
12446;DHT22;6287;50.984;7.022;2023-02-23T04:52:45;9.70;99.90
12446;DHT22;6287;50.984;7.022;2023-02-23T04:55:17;9.70;99.90
12446;DHT22;6287;50.984;7.022;2023-02-23T04:57:45;9.60;99.90
12446;DHT22;6287;50.984;7.022;2023-02-23T05:00:13;9.70;99.90
12446;DHT22;6287;50.984;7.022;2023-02-23T05:02:44;9.60;99.90
12446;DHT22;6287;50.984;7.022;2023-02-23T05:05:14;9.60;99.90
12446;DHT22;6287;50.984;7.022;2023-02-23T05:07:39;9.60;99.90
12446;DHT22;6287;50.984;7.022;2023-02-23T05:10:06;9.50;99.90
12446;DHT22;6287;50.984;7.022;2023-02-23T05:12:34;9.50;99.90
12446;DHT22;6287;50.984;7.022;2023-02-23T05:15:03;9.50;99.90
12446;DHT22;6287;50.984;7.022;2023-02-23T05:17:29;9.50;99.90
12446;DHT22;6287;50.984;7.022;2023-02-23T05:19:55;9.50;99.90
12446;DHT22;6287;50.984;7.022;2023-02-23T05:22:23;9.50;99.90
12446;DHT22;6287;50.984;7.022;2023-02-23T05:24:52;9.50;99.90
12446;DHT22;6287;50.984;7.022;2023-02-23T05:27:18;9.50;99.90
12446;DHT22;6287;50.984;7.022;2023-02-23T05:29:46;9.40;99.90
12446;DHT22;6287;50.984;7.022;2023-02-23T05:32:14;9.40;99.90
12446;DHT22;6287;50.984;7.022;2023-02-23T05:34:40;9.40;99.90
12446;DHT22;6287;50.984;7.022;2023-02-23T05:37:06;9.40;99.90
12446;DHT22;6287;50.984;7.022;2023-02-23T05:39:32;9.40;99.90
12446;DHT22;6287;50.984;7.022;2023-02-23T05:41:58;9.40;99.90
12446;DHT22;6287;50.984;7.022;2023-02-23T05:44:26;9.40;99.90
12446;DHT22;6287;50.984;7.022;2023-02-23T05:46:54;9.40;99.90
12446;DHT22;6287;50.984;7.022;2023-02-23T05:49:22;9.40;99.90
12446;DHT22;6287;50.984;7.022;2023-02-23T05:51:48;9.30;99.90
12446;DHT22;6287;50.984;7.022;2023-02-23T05:54:14;9.30;99.90
12446;DHT22;6287;50.984;7.022;2023-02-23T05:56:41;9.30;99.90
12446;DHT22;6287;50.984;7.022;2023-02-23T05:59:06;9.30;99.90
12446;DHT22;6287;50.984;7.022;2023-02-23T06:01:35;9.30;99.90
12446;DHT22;6287;50.984;7.022;2023-02-23T06:04:03;9.30;99.90
12446;DHT22;6287;50.984;7.022;2023-02-23T06:06:29;9.30;99.90
12446;DHT22;6287;50.984;7.022;2023-02-23T06:08:57;9.30;99.90
12446;DHT22;6287;50.984;7.022;2023-02-23T06:11:23;9.40;99.90
12446;DHT22;6287;50.984;7.022;2023-02-23T06:13:51;9.40;99.90
12446;DHT22;6287;50.984;7.022;2023-02-23T06:16:17;9.40;99.90
12446;DHT22;6287;50.984;7.022;2023-02-23T06:18:43;9.40;99.90
12446;DHT22;6287;50.984;7.022;2023-02-23T06:21:08;9.40;99.90
12446;DHT22;6287;50.984;7.022;2023-02-23T06:23:36;9.30;99.90
12446;DHT22;6287;50.984;7.022;2023-02-23T06:26:04;9.40;99.90
12446;DHT22;6287;50.984;7.022;2023-02-23T06:28:32;9.30;99.90
12446;DHT22;6287;50.984;7.022;2023-02-23T06:30:58;9.30;99.90
12446;DHT22;6287;50.984;7.022;2023-02-23T06:33:24;9.30;99.90
12446;DHT22;6287;50.984;7.022;2023-02-23T06:35:51;9.30;99.90
12446;DHT22;6287;50.984;7.022;2023-02-23T06:38:17;9.30;99.90
12446;DHT22;6287;50.984;7.022;2023-02-23T06:40:45;9.20;99.90
12446;DHT22;6287;50.984;7.022;2023-02-23T06:43:11;9.30;99.90
12446;DHT22;6287;50.984;7.022;2023-02-23T06:45:39;9.30;99.90
12446;DHT22;6287;50.984;7.022;2023-02-23T06:48:07;9.30;99.90
12446;DHT22;6287;50.984;7.022;2023-02-23T06:50:33;9.30;99.90
12446;DHT22;6287;50.984;7.022;2023-02-23T06:52:59;9.30;99.90
12446;DHT22;6287;50.984;7.022;2023-02-23T06:55:24;9.30;99.90
12446;DHT22;6287;50.984;7.022;2023-02-23T06:57:50;9.30;99.90
12446;DHT22;6287;50.984;7.022;2023-02-23T07:00:18;9.30;99.90
12446;DHT22;6287;50.984;7.022;2023-02-23T07:02:43;9.30;99.90
12446;DHT22;6287;50.984;7.022;2023-02-23T07:05:10;9.40;99.90
12446;DHT22;6287;50.984;7.022;2023-02-23T07:07:36;9.30;99.90
12446;DHT22;6287;50.984;7.022;2023-02-23T07:10:04;9.40;99.90
12446;DHT22;6287;50.984;7.022;2023-02-23T07:12:33;9.30;99.90
12446;DHT22;6287;50.984;7.022;2023-02-23T07:14:58;9.30;99.90
12446;DHT22;6287;50.984;7.022;2023-02-23T07:17:26;9.30;99.90
12446;DHT22;6287;50.984;7.022;2023-02-23T07:19:52;9.40;99.90
12446;DHT22;6287;50.984;7.022;2023-02-23T07:22:20;9.40;99.90
12446;DHT22;6287;50.984;7.022;2023-02-23T07:24:49;9.30;99.90
12446;DHT22;6287;50.984;7.022;2023-02-23T07:27:14;9.30;99.90
12446;DHT22;6287;50.984;7.022;2023-02-23T07:29:40;9.30;99.90
12446;DHT22;6287;50.984;7.022;2023-02-23T07:32:06;9.30;99.90
12446;DHT22;6287;50.984;7.022;2023-02-23T07:34:32;9.30;99.90
12446;DHT22;6287;50.984;7.022;2023-02-23T07:36:57;9.30;99.90
12446;DHT22;6287;50.984;7.022;2023-02-23T07:39:23;9.30;99.90
12446;DHT22;6287;50.984;7.022;2023-02-23T07:41:49;9.40;99.90
12446;DHT22;6287;50.984;7.022;2023-02-23T07:44:20;9.40;99.90
12446;DHT22;6287;50.984;7.022;2023-02-23T07:46:46;9.40;99.90
12446;DHT22;6287;50.984;7.022;2023-02-23T07:49:14;9.40;99.90
12446;DHT22;6287;50.984;7.022;2023-02-23T07:51:40;9.40;99.90
12446;DHT22;6287;50.984;7.022;2023-02-23T07:54:08;9.40;99.90
12446;DHT22;6287;50.984;7.022;2023-02-23T07:56:34;9.50;99.90
12446;DHT22;6287;50.984;7.022;2023-02-23T07:59:02;9.50;99.90
12446;DHT22;6287;50.984;7.022;2023-02-23T08:01:30;9.50;99.90
12446;DHT22;6287;50.984;7.022;2023-02-23T08:03:58;9.60;99.90
12446;DHT22;6287;50.984;7.022;2023-02-23T08:06:24;9.60;99.90
12446;DHT22;6287;50.984;7.022;2023-02-23T08:08:52;9.70;99.90
12446;DHT22;6287;50.984;7.022;2023-02-23T08:11:21;9.70;99.90
12446;DHT22;6287;50.984;7.022;2023-02-23T08:13:48;9.70;99.90
12446;DHT22;6287;50.984;7.022;2023-02-23T08:16:18;9.70;99.90
12446;DHT22;6287;50.984;7.022;2023-02-23T08:18:43;9.70;99.90
12446;DHT22;6287;50.984;7.022;2023-02-23T08:21:10;9.70;99.90
12446;DHT22;6287;50.984;7.022;2023-02-23T08:23:36;9.80;99.90
12446;DHT22;6287;50.984;7.022;2023-02-23T08:26:02;9.70;99.90
12446;DHT22;6287;50.984;7.022;2023-02-23T08:30:57;9.70;99.90
12446;DHT22;6287;50.984;7.022;2023-02-23T08:33:24;9.70;99.90
12446;DHT22;6287;50.984;7.022;2023-02-23T08:35:49;9.80;99.90
12446;DHT22;6287;50.984;7.022;2023-02-23T08:38:23;9.70;99.90
12446;DHT22;6287;50.984;7.022;2023-02-23T08:40:59;9.70;99.90
12446;DHT22;6287;50.984;7.022;2023-02-23T08:43:27;9.70;99.90
12446;DHT22;6287;50.984;7.022;2023-02-23T08:45:55;9.70;99.90
12446;DHT22;6287;50.984;7.022;2023-02-23T08:48:24;9.70;99.90
12446;DHT22;6287;50.984;7.022;2023-02-23T08:50:50;9.70;99.90
12446;DHT22;6287;50.984;7.022;2023-02-23T08:53:22;9.70;99.90
12446;DHT22;6287;50.984;7.022;2023-02-23T08:56:07;9.60;99.90
12446;DHT22;6287;50.984;7.022;2023-02-23T08:58:35;9.60;99.90
12446;DHT22;6287;50.984;7.022;2023-02-23T09:01:04;9.60;99.90
12446;DHT22;6287;50.984;7.022;2023-02-23T09:03:31;9.50;99.90
12446;DHT22;6287;50.984;7.022;2023-02-23T09:06:05;9.40;99.90
12446;DHT22;6287;50.984;7.022;2023-02-23T09:08:31;9.50;99.90
12446;DHT22;6287;50.984;7.022;2023-02-23T09:10:59;9.50;99.90
12446;DHT22;6287;50.984;7.022;2023-02-23T09:13:27;9.50;99.90
12446;DHT22;6287;50.984;7.022;2023-02-23T09:15:53;9.50;99.90
12446;DHT22;6287;50.984;7.022;2023-02-23T09:18:22;9.40;99.90
12446;DHT22;6287;50.984;7.022;2023-02-23T09:20:54;9.50;99.90
12446;DHT22;6287;50.984;7.022;2023-02-23T09:23:20;9.40;99.90
12446;DHT22;6287;50.984;7.022;2023-02-23T09:25:45;9.40;99.90
12446;DHT22;6287;50.984;7.022;2023-02-23T09:28:17;9.40;99.90
12446;DHT22;6287;50.984;7.022;2023-02-23T09:30:46;9.40;99.90
12446;DHT22;6287;50.984;7.022;2023-02-23T09:33:12;9.40;99.90
12446;DHT22;6287;50.984;7.022;2023-02-23T09:35:39;9.30;99.90
12446;DHT22;6287;50.984;7.022;2023-02-23T09:38:06;9.30;99.90
12446;DHT22;6287;50.984;7.022;2023-02-23T09:40:52;9.40;99.90
12446;DHT22;6287;50.984;7.022;2023-02-23T09:48:50;9.40;99.90
12446;DHT22;6287;50.984;7.022;2023-02-23T09:51:21;9.40;99.90
12446;DHT22;6287;50.984;7.022;2023-02-23T09:53:53;9.50;99.90
12446;DHT22;6287;50.984;7.022;2023-02-23T09:56:42;9.60;99.90
12446;DHT22;6287;50.984;7.022;2023-02-23T09:59:14;9.60;99.90
12446;DHT22;6287;50.984;7.022;2023-02-23T10:04:16;9.60;99.90
12446;DHT22;6287;50.984;7.022;2023-02-23T10:07:14;9.70;99.90
12446;DHT22;6287;50.984;7.022;2023-02-23T10:15:56;9.70;99.90
12446;DHT22;6287;50.984;7.022;2023-02-23T10:18:42;9.70;99.90
12446;DHT22;6287;50.984;7.022;2023-02-23T10:21:33;9.70;99.90
12446;DHT22;6287;50.984;7.022;2023-02-23T10:26:46;9.70;99.90
12446;DHT22;6287;50.984;7.022;2023-02-23T10:31:55;9.70;99.90
12446;DHT22;6287;50.984;7.022;2023-02-23T10:34:26;9.70;99.90
12446;DHT22;6287;50.984;7.022;2023-02-23T10:37:01;9.70;99.90
12446;DHT22;6287;50.984;7.022;2023-02-23T10:39:33;9.60;99.90
12446;DHT22;6287;50.984;7.022;2023-02-23T10:42:04;9.70;99.90
12446;DHT22;6287;50.984;7.022;2023-02-23T10:44:33;9.70;99.90
12446;DHT22;6287;50.984;7.022;2023-02-23T10:47:10;9.70;99.90
12446;DHT22;6287;50.984;7.022;2023-02-23T10:49:47;9.70;99.90
12446;DHT22;6287;50.984;7.022;2023-02-23T10:54:59;9.70;99.90
12446;DHT22;6287;50.984;7.022;2023-02-23T10:57:30;9.70;99.90
12446;DHT22;6287;50.984;7.022;2023-02-23T11:02:46;9.70;99.90
12446;DHT22;6287;50.984;7.022;2023-02-23T11:13:43;9.80;99.90
12446;DHT22;6287;50.984;7.022;2023-02-23T11:16:13;9.70;99.90
12446;DHT22;6287;50.984;7.022;2023-02-23T11:18:42;9.80;99.90
12446;DHT22;6287;50.984;7.022;2023-02-23T11:21:20;9.80;99.90
12446;DHT22;6287;50.984;7.022;2023-02-23T11:23:50;9.80;99.90
12446;DHT22;6287;50.984;7.022;2023-02-23T11:26:26;9.80;99.90
12446;DHT22;6287;50.984;7.022;2023-02-23T11:31:29;9.70;99.90
12446;DHT22;6287;50.984;7.022;2023-02-23T11:33:55;9.70;99.90
12446;DHT22;6287;50.984;7.022;2023-02-23T11:36:34;9.80;99.90
12446;DHT22;6287;50.984;7.022;2023-02-23T11:41:38;9.70;99.90
12446;DHT22;6287;50.984;7.022;2023-02-23T11:44:05;9.80;99.90
12446;DHT22;6287;50.984;7.022;2023-02-23T11:46:34;9.70;99.90
12446;DHT22;6287;50.984;7.022;2023-02-23T11:51:54;9.70;99.90
12446;DHT22;6287;50.984;7.022;2023-02-23T11:54:31;9.70;99.90
12446;DHT22;6287;50.984;7.022;2023-02-23T11:57:05;9.70;99.90
12446;DHT22;6287;50.984;7.022;2023-02-23T11:59:34;9.70;99.90
12446;DHT22;6287;50.984;7.022;2023-02-23T12:02:23;9.80;99.90
12446;DHT22;6287;50.984;7.022;2023-02-23T12:05:12;9.80;99.90
12446;DHT22;6287;50.984;7.022;2023-02-23T12:10:48;9.80;99.90
12446;DHT22;6287;50.984;7.022;2023-02-23T12:13:41;9.70;99.90
12446;DHT22;6287;50.984;7.022;2023-02-23T12:16:17;9.60;99.90
12446;DHT22;6287;50.984;7.022;2023-02-23T12:19:19;9.60;99.90
12446;DHT22;6287;50.984;7.022;2023-02-23T12:25:21;9.50;99.90
12446;DHT22;6287;50.984;7.022;2023-02-23T12:27:59;9.50;99.90
12446;DHT22;6287;50.984;7.022;2023-02-23T12:30:43;9.50;99.90
12446;DHT22;6287;50.984;7.022;2023-02-23T12:33:44;9.50;99.90
12446;DHT22;6287;50.984;7.022;2023-02-23T12:36:18;9.40;99.90
12446;DHT22;6287;50.984;7.022;2023-02-23T12:39:05;9.40;99.90
12446;DHT22;6287;50.984;7.022;2023-02-23T12:44:36;9.30;99.90
12446;DHT22;6287;50.984;7.022;2023-02-23T12:52:44;9.30;99.90
12446;DHT22;6287;50.984;7.022;2023-02-23T12:57:57;9.20;99.90
12446;DHT22;6287;50.984;7.022;2023-02-23T13:03:30;9.30;99.90
12446;DHT22;6287;50.984;7.022;2023-02-23T13:08:52;9.40;99.90
12446;DHT22;6287;50.984;7.022;2023-02-23T13:21:39;9.30;99.90
12446;DHT22;6287;50.984;7.022;2023-02-23T13:24:06;9.30;99.90
12446;DHT22;6287;50.984;7.022;2023-02-23T13:29:45;9.30;99.90
12446;DHT22;6287;50.984;7.022;2023-02-23T13:34:42;9.20;99.90
12446;DHT22;6287;50.984;7.022;2023-02-23T13:37:13;9.20;99.90
12446;DHT22;6287;50.984;7.022;2023-02-23T13:40:06;9.00;99.90
12446;DHT22;6287;50.984;7.022;2023-02-23T13:43:11;9.00;99.90
12446;DHT22;6287;50.984;7.022;2023-02-23T13:56:26;8.80;99.90
12446;DHT22;6287;50.984;7.022;2023-02-23T13:59:21;8.80;99.90
12446;DHT22;6287;50.984;7.022;2023-02-23T14:01:53;8.80;99.90
12446;DHT22;6287;50.984;7.022;2023-02-23T14:04:34;8.80;99.90
12446;DHT22;6287;50.984;7.022;2023-02-23T14:09:40;9.00;99.90
12446;DHT22;6287;50.984;7.022;2023-02-23T14:20:13;9.30;99.90
12446;DHT22;6287;50.984;7.022;2023-02-23T14:23:15;9.30;99.90
12446;DHT22;6287;50.984;7.022;2023-02-23T14:33:56;9.60;99.90
12446;DHT22;6287;50.984;7.022;2023-02-23T14:39:03;9.70;99.90
12446;DHT22;6287;50.984;7.022;2023-02-23T14:44:16;9.80;99.90
12446;DHT22;6287;50.984;7.022;2023-02-23T14:47:12;9.80;99.90
12446;DHT22;6287;50.984;7.022;2023-02-23T14:49:47;9.80;99.90
12446;DHT22;6287;50.984;7.022;2023-02-23T14:54:49;9.90;99.90
12446;DHT22;6287;50.984;7.022;2023-02-23T14:57:23;9.90;99.90
12446;DHT22;6287;50.984;7.022;2023-02-23T14:59:59;9.90;99.90
12446;DHT22;6287;50.984;7.022;2023-02-23T15:02:27;9.90;99.90
12446;DHT22;6287;50.984;7.022;2023-02-23T15:04:56;9.80;99.90
12446;DHT22;6287;50.984;7.022;2023-02-23T15:07:37;9.80;99.90
12446;DHT22;6287;50.984;7.022;2023-02-23T15:10:16;9.80;99.90
12446;DHT22;6287;50.984;7.022;2023-02-23T15:12:46;9.80;99.90
12446;DHT22;6287;50.984;7.022;2023-02-23T15:15:17;9.80;99.90
12446;DHT22;6287;50.984;7.022;2023-02-23T15:17:45;9.70;99.90
12446;DHT22;6287;50.984;7.022;2023-02-23T15:20:16;9.70;99.90
12446;DHT22;6287;50.984;7.022;2023-02-23T15:22:50;9.70;99.90
12446;DHT22;6287;50.984;7.022;2023-02-23T15:25:23;9.70;99.90
12446;DHT22;6287;50.984;7.022;2023-02-23T15:27:54;9.60;99.90
12446;DHT22;6287;50.984;7.022;2023-02-23T15:30:27;9.60;99.90
12446;DHT22;6287;50.984;7.022;2023-02-23T15:33:03;9.60;99.90
12446;DHT22;6287;50.984;7.022;2023-02-23T15:35:30;9.70;99.90
12446;DHT22;6287;50.984;7.022;2023-02-23T15:37:57;9.70;99.90
12446;DHT22;6287;50.984;7.022;2023-02-23T15:40:26;9.70;99.90
12446;DHT22;6287;50.984;7.022;2023-02-23T15:42:56;9.70;99.90
12446;DHT22;6287;50.984;7.022;2023-02-23T15:45:34;9.80;99.90
12446;DHT22;6287;50.984;7.022;2023-02-23T15:48:06;9.80;99.90
12446;DHT22;6287;50.984;7.022;2023-02-23T15:50:40;9.80;99.90
12446;DHT22;6287;50.984;7.022;2023-02-23T15:53:12;9.80;99.90
12446;DHT22;6287;50.984;7.022;2023-02-23T15:55:44;9.70;99.90
12446;DHT22;6287;50.984;7.022;2023-02-23T15:58:15;9.70;99.90
12446;DHT22;6287;50.984;7.022;2023-02-23T16:00:44;9.70;99.90
12446;DHT22;6287;50.984;7.022;2023-02-23T16:03:45;9.70;99.90
12446;DHT22;6287;50.984;7.022;2023-02-23T16:06:32;9.70;99.90
12446;DHT22;6287;50.984;7.022;2023-02-23T16:11:32;9.60;99.90
12446;DHT22;6287;50.984;7.022;2023-02-23T16:14:01;9.60;99.90
12446;DHT22;6287;50.984;7.022;2023-02-23T16:16:33;9.50;99.90
12446;DHT22;6287;50.984;7.022;2023-02-23T16:19:01;9.40;99.90
12446;DHT22;6287;50.984;7.022;2023-02-23T16:21:30;9.40;99.90
12446;DHT22;6287;50.984;7.022;2023-02-23T16:23:57;9.40;99.90
12446;DHT22;6287;50.984;7.022;2023-02-23T16:26:27;9.30;99.90
12446;DHT22;6287;50.984;7.022;2023-02-23T16:28:56;9.40;99.90
12446;DHT22;6287;50.984;7.022;2023-02-23T16:31:24;9.30;99.90
12446;DHT22;6287;50.984;7.022;2023-02-23T16:33:57;9.30;99.90
12446;DHT22;6287;50.984;7.022;2023-02-23T16:36:35;9.20;99.90
12446;DHT22;6287;50.984;7.022;2023-02-23T16:39:10;9.20;99.90
12446;DHT22;6287;50.984;7.022;2023-02-23T16:41:37;9.20;99.90
12446;DHT22;6287;50.984;7.022;2023-02-23T16:44:04;9.20;99.90
12446;DHT22;6287;50.984;7.022;2023-02-23T16:49:22;9.10;99.90
12446;DHT22;6287;50.984;7.022;2023-02-23T16:51:49;9.10;99.90
12446;DHT22;6287;50.984;7.022;2023-02-23T16:54:17;9.10;99.90
12446;DHT22;6287;50.984;7.022;2023-02-23T16:56:43;9.10;99.90
12446;DHT22;6287;50.984;7.022;2023-02-23T16:59:14;9.10;99.90
12446;DHT22;6287;50.984;7.022;2023-02-23T17:01:43;9.00;99.90
12446;DHT22;6287;50.984;7.022;2023-02-23T17:04:15;9.00;99.90
12446;DHT22;6287;50.984;7.022;2023-02-23T17:06:43;9.00;99.90
12446;DHT22;6287;50.984;7.022;2023-02-23T17:09:11;9.10;99.90
12446;DHT22;6287;50.984;7.022;2023-02-23T17:11:40;9.00;99.90
12446;DHT22;6287;50.984;7.022;2023-02-23T17:14:10;9.00;99.90
12446;DHT22;6287;50.984;7.022;2023-02-23T17:16:40;9.00;99.90
12446;DHT22;6287;50.984;7.022;2023-02-23T17:19:05;9.00;99.90
12446;DHT22;6287;50.984;7.022;2023-02-23T17:21:31;9.00;99.90
12446;DHT22;6287;50.984;7.022;2023-02-23T17:24:01;9.00;99.90
12446;DHT22;6287;50.984;7.022;2023-02-23T17:26:30;9.00;99.90
12446;DHT22;6287;50.984;7.022;2023-02-23T17:28:59;9.00;99.90
12446;DHT22;6287;50.984;7.022;2023-02-23T17:31:26;9.00;99.90
12446;DHT22;6287;50.984;7.022;2023-02-23T17:33:52;9.00;99.90
12446;DHT22;6287;50.984;7.022;2023-02-23T17:36:22;8.90;99.90
12446;DHT22;6287;50.984;7.022;2023-02-23T17:38:52;8.90;99.90
12446;DHT22;6287;50.984;7.022;2023-02-23T17:41:24;8.00;99.90
12446;DHT22;6287;50.984;7.022;2023-02-23T17:43:50;8.90;99.90
12446;DHT22;6287;50.984;7.022;2023-02-23T17:46:18;8.80;99.90
12446;DHT22;6287;50.984;7.022;2023-02-23T17:48:46;8.80;99.90
12446;DHT22;6287;50.984;7.022;2023-02-23T17:51:14;8.80;99.90
12446;DHT22;6287;50.984;7.022;2023-02-23T17:53:43;8.80;99.90
12446;DHT22;6287;50.984;7.022;2023-02-23T17:56:09;8.80;99.90
12446;DHT22;6287;50.984;7.022;2023-02-23T17:58:36;8.80;99.90
12446;DHT22;6287;50.984;7.022;2023-02-23T18:01:05;8.80;99.90
12446;DHT22;6287;50.984;7.022;2023-02-23T18:03:35;8.90;99.90
12446;DHT22;6287;50.984;7.022;2023-02-23T18:06:12;8.80;99.90
12446;DHT22;6287;50.984;7.022;2023-02-23T18:08:39;8.80;99.90
12446;DHT22;6287;50.984;7.022;2023-02-23T18:11:08;8.80;99.90
12446;DHT22;6287;50.984;7.022;2023-02-23T18:13:37;8.80;99.90
12446;DHT22;6287;50.984;7.022;2023-02-23T18:16:09;8.80;99.90
12446;DHT22;6287;50.984;7.022;2023-02-23T18:18:39;8.80;99.90
12446;DHT22;6287;50.984;7.022;2023-02-23T18:21:11;8.80;99.90
12446;DHT22;6287;50.984;7.022;2023-02-23T18:23:39;8.70;99.90
12446;DHT22;6287;50.984;7.022;2023-02-23T18:26:11;8.70;99.90
12446;DHT22;6287;50.984;7.022;2023-02-23T18:28:42;8.70;99.90
12446;DHT22;6287;50.984;7.022;2023-02-23T18:31:24;8.60;99.90
12446;DHT22;6287;50.984;7.022;2023-02-23T18:33:55;8.70;99.90
12446;DHT22;6287;50.984;7.022;2023-02-23T18:36:24;8.60;99.90
12446;DHT22;6287;50.984;7.022;2023-02-23T18:38:53;8.60;99.90
12446;DHT22;6287;50.984;7.022;2023-02-23T18:41:25;8.60;99.90
12446;DHT22;6287;50.984;7.022;2023-02-23T18:43:55;8.60;99.90
12446;DHT22;6287;50.984;7.022;2023-02-23T18:46:23;8.60;99.90
12446;DHT22;6287;50.984;7.022;2023-02-23T18:48:51;8.60;99.90
12446;DHT22;6287;50.984;7.022;2023-02-23T18:51:19;8.60;99.90
12446;DHT22;6287;50.984;7.022;2023-02-23T18:56:15;8.50;99.90
12446;DHT22;6287;50.984;7.022;2023-02-23T18:58:44;8.50;99.90
12446;DHT22;6287;50.984;7.022;2023-02-23T19:01:14;8.50;99.90
12446;DHT22;6287;50.984;7.022;2023-02-23T19:03:45;8.50;99.90
12446;DHT22;6287;50.984;7.022;2023-02-23T19:06:11;8.50;99.90
12446;DHT22;6287;50.984;7.022;2023-02-23T19:08:37;8.40;99.90
12446;DHT22;6287;50.984;7.022;2023-02-23T19:11:06;8.40;99.90
12446;DHT22;6287;50.984;7.022;2023-02-23T19:13:31;8.40;99.90
12446;DHT22;6287;50.984;7.022;2023-02-23T19:16:04;8.30;99.90
12446;DHT22;6287;50.984;7.022;2023-02-23T19:18:29;8.30;99.90
12446;DHT22;6287;50.984;7.022;2023-02-23T19:20:58;8.40;99.90
12446;DHT22;6287;50.984;7.022;2023-02-23T19:23:26;8.40;99.90
12446;DHT22;6287;50.984;7.022;2023-02-23T19:25:55;8.50;99.90
12446;DHT22;6287;50.984;7.022;2023-02-23T19:30:49;8.50;99.90
12446;DHT22;6287;50.984;7.022;2023-02-23T19:33:15;8.40;99.90
12446;DHT22;6287;50.984;7.022;2023-02-23T19:35:44;8.40;99.90
12446;DHT22;6287;50.984;7.022;2023-02-23T19:38:10;8.40;99.90